createdAt,value
2022-10-10T00:00:34.005Z,4.64
2022-10-10T00:05:40.122Z,4.71
2022-10-10T00:10:42.000Z,4.78
2022-10-10T00:15:48.067Z,4.84
2022-10-10T00:20:52.695Z,4.87
2022-10-10T00:25:54.740Z,4.87
2022-10-10T00:30:56.534Z,4.86
2022-10-10T00:35:59.622Z,4.87
2022-10-10T00:41:02.150Z,4.86
2022-10-10T00:46:04.418Z,4.91
2022-10-10T00:51:10.168Z,5.02
2022-10-10T00:56:14.013Z,5.10
2022-10-10T01:01:15.985Z,5.19
2022-10-10T01:06:17.708Z,5.27
2022-10-10T01:11:22.340Z,5.32
2022-10-10T01:16:29.702Z,5.33
2022-10-10T01:21:51.025Z,5.35
2022-10-10T01:27:19.019Z,5.36
2022-10-10T01:32:29.515Z,5.39
2022-10-10T01:37:46.136Z,5.37
2022-10-10T01:42:53.325Z,5.38
2022-10-10T01:48:16.352Z,5.36
2022-10-10T01:53:39.189Z,5.32
2022-10-10T01:59:03.728Z,5.30
2022-10-10T02:04:15.821Z,5.37
2022-10-10T02:09:23.274Z,5.43
2022-10-10T02:14:31.454Z,5.48
2022-10-10T02:19:34.563Z,5.50
2022-10-10T02:24:36.614Z,5.49
2022-10-10T02:29:48.813Z,5.47
2022-10-10T02:35:17.289Z,5.42
2022-10-10T02:40:28.977Z,5.39
2022-10-10T02:45:33.352Z,5.34
2022-10-10T02:50:35.688Z,5.31
2022-10-10T02:55:37.966Z,5.29
2022-10-10T03:00:39.781Z,5.24
2022-10-10T03:05:42.074Z,5.21
2022-10-10T03:10:58.882Z,5.21
2022-10-10T03:16:00.615Z,5.21
2022-10-10T03:21:08.895Z,5.17
2022-10-10T03:26:10.818Z,5.17
2022-10-10T03:31:12.612Z,5.18
2022-10-10T03:36:14.714Z,5.13
2022-10-10T03:41:16.503Z,5.12
2022-10-10T03:46:18.357Z,5.14
2022-10-10T03:51:20.287Z,5.08
2022-10-10T03:56:22.068Z,5.02
2022-10-10T04:01:23.933Z,4.96
2022-10-10T04:06:26.056Z,4.92
2022-10-10T04:11:27.977Z,4.84
2022-10-10T04:16:29.649Z,4.74
2022-10-10T04:21:31.709Z,4.62
2022-10-10T04:26:33.465Z,4.48
2022-10-10T04:31:35.737Z,4.37
2022-10-10T04:36:37.450Z,4.29
2022-10-10T04:41:39.262Z,4.17
2022-10-10T04:46:41.119Z,4.07
2022-10-10T04:51:43.000Z,3.95
2022-10-10T04:56:46.010Z,3.88
2022-10-10T05:02:11.166Z,3.82
2022-10-10T05:07:26.528Z,3.76
2022-10-10T05:12:28.324Z,3.66
2022-10-10T05:17:34.264Z,3.59
2022-10-10T05:22:36.190Z,3.56
2022-10-10T05:27:38.113Z,3.59
2022-10-10T05:32:39.829Z,3.68
2022-10-10T05:37:41.635Z,3.87
2022-10-10T05:42:46.768Z,4.11
2022-10-10T05:47:48.478Z,4.42
2022-10-10T05:52:51.528Z,4.73
2022-10-10T05:57:54.257Z,5.01
2022-10-10T06:02:58.523Z,5.32
2022-10-10T06:08:07.822Z,5.62
2022-10-10T06:13:23.845Z,5.94
2022-10-10T06:18:26.495Z,6.25
2022-10-10T06:23:29.328Z,6.57
2022-10-10T06:28:31.414Z,6.91
2022-10-10T06:33:33.518Z,7.19
2022-10-10T06:38:39.412Z,7.49
2022-10-10T06:43:41.723Z,7.78
2022-10-10T06:48:43.998Z,8.06
2022-10-10T06:53:46.551Z,8.33
2022-10-10T06:58:49.056Z,8.59
2022-10-10T07:03:50.917Z,8.86
2022-10-10T07:08:52.632Z,9.16
2022-10-10T07:13:54.535Z,9.47
2022-10-10T07:18:56.200Z,9.73
2022-10-10T07:23:58.447Z,9.98
2022-10-10T07:29:00.371Z,10.28
2022-10-10T07:34:02.761Z,10.53
2022-10-10T07:39:04.481Z,10.83
2022-10-10T07:44:30.189Z,11.19
2022-10-10T07:49:43.389Z,11.51
2022-10-10T07:54:45.060Z,11.76
2022-10-10T07:59:47.001Z,11.94
2022-10-10T08:05:09.163Z,12.14
2022-10-10T08:10:23.293Z,12.42
2022-10-10T08:15:26.897Z,12.65
2022-10-10T08:20:30.832Z,12.88
2022-10-10T08:25:33.583Z,13.09
2022-10-10T08:30:41.114Z,13.37
2022-10-10T08:35:43.102Z,13.68
2022-10-10T08:40:57.563Z,13.92
2022-10-10T08:46:06.552Z,14.09
2022-10-10T08:51:14.822Z,14.32
2022-10-10T08:56:23.620Z,14.46
2022-10-10T09:01:33.799Z,14.72
2022-10-10T09:06:53.724Z,14.98
2022-10-10T09:12:14.535Z,15.31
2022-10-10T09:17:38.102Z,15.66
2022-10-10T09:22:53.183Z,16.08
2022-10-10T09:28:03.553Z,16.44
2022-10-10T09:33:23.572Z,16.62
2022-10-10T09:38:37.541Z,16.75
2022-10-10T09:43:41.039Z,17.04
2022-10-10T09:48:43.232Z,17.38
2022-10-10T09:53:47.597Z,17.65
2022-10-10T09:58:51.982Z,17.87
2022-10-10T10:04:30.131Z,18.06
2022-10-10T10:09:32.153Z,18.22
2022-10-10T10:14:38.812Z,18.43
2022-10-10T10:19:43.970Z,18.63
2022-10-10T10:24:45.847Z,18.82
2022-10-10T10:29:53.121Z,19.03
2022-10-10T10:35:07.965Z,19.22
2022-10-10T10:40:25.139Z,19.32
2022-10-10T10:45:45.514Z,19.51
2022-10-10T10:51:29.567Z,19.82
2022-10-10T10:56:46.404Z,20.06
2022-10-10T11:02:11.498Z,20.21
2022-10-10T11:07:22.523Z,20.41
2022-10-10T11:12:43.555Z,20.69
2022-10-10T11:17:51.279Z,20.66
2022-10-10T11:23:08.670Z,20.75
2022-10-10T11:28:22.390Z,21.05
2022-10-10T11:33:30.770Z,21.32
2022-10-10T11:38:59.789Z,21.44
2022-10-10T11:44:19.108Z,21.58
2022-10-10T11:49:42.640Z,21.74
2022-10-10T11:55:37.591Z,21.89
2022-10-10T12:00:46.124Z,21.85
2022-10-10T12:05:53.074Z,21.98
2022-10-10T12:11:05.699Z,22.19
2022-10-10T12:16:43.122Z,22.46
2022-10-10T12:22:09.095Z,22.73
2022-10-10T12:27:27.472Z,22.60
2022-10-10T12:32:43.671Z,22.74
2022-10-10T12:38:05.984Z,22.75
2022-10-10T12:43:26.190Z,22.60
2022-10-10T12:48:27.973Z,22.82
2022-10-10T12:53:33.399Z,22.81
2022-10-10T12:58:39.368Z,22.98
2022-10-10T13:04:02.245Z,22.97
2022-10-10T13:09:18.417Z,22.91
2022-10-10T13:14:21.069Z,22.99
2022-10-10T13:19:25.163Z,22.87
2022-10-10T13:24:31.983Z,22.75
2022-10-10T13:29:36.015Z,22.89
2022-10-10T13:34:42.499Z,23.13
2022-10-10T13:40:03.150Z,23.23
2022-10-10T13:45:30.282Z,23.29
2022-10-10T13:50:44.705Z,23.18
2022-10-10T13:55:59.993Z,23.04
2022-10-10T14:01:04.328Z,22.95
2022-10-10T14:06:08.009Z,22.88
2022-10-10T14:11:17.800Z,22.86
2022-10-10T14:16:20.170Z,22.84
2022-10-10T14:21:23.028Z,22.63
2022-10-10T14:26:25.137Z,22.44
2022-10-10T14:31:28.941Z,22.23
2022-10-10T14:36:30.826Z,22.07
2022-10-10T14:41:32.682Z,21.94
2022-10-10T14:46:35.015Z,21.79
2022-10-10T14:51:38.612Z,21.45
2022-10-10T14:57:08.237Z,21.18
2022-10-10T15:02:06.578Z,21.12
2022-10-10T15:07:14.365Z,20.96
2022-10-10T15:12:18.413Z,20.54
2022-10-10T15:17:20.319Z,20.11
2022-10-10T15:22:30.247Z,19.69
2022-10-10T15:27:32.835Z,19.29
2022-10-10T15:32:41.323Z,18.86
2022-10-10T15:37:43.613Z,18.42
2022-10-10T15:42:46.382Z,17.94
2022-10-10T15:47:48.326Z,17.43
2022-10-10T15:52:50.081Z,16.91
2022-10-10T15:57:51.792Z,16.46
2022-10-10T16:02:53.620Z,16.00
2022-10-10T16:08:07.516Z,15.54
2022-10-10T16:13:10.783Z,15.15
2022-10-10T16:18:12.696Z,14.77
2022-10-10T16:23:14.707Z,14.41
2022-10-10T16:28:16.667Z,14.12
2022-10-10T16:33:20.350Z,13.85
2022-10-10T16:38:22.047Z,13.61
2022-10-10T16:43:23.861Z,13.38
2022-10-10T16:48:25.765Z,13.20
2022-10-10T16:53:27.955Z,13.02
2022-10-10T16:58:30.011Z,12.89
2022-10-10T17:03:31.812Z,12.84
2022-10-10T17:08:34.197Z,12.72
2022-10-10T17:13:43.092Z,12.51
2022-10-10T17:18:44.946Z,12.32
2022-10-10T17:23:47.777Z,12.19
2022-10-10T17:28:50.417Z,12.06
2022-10-10T17:33:54.397Z,11.97
2022-10-10T17:39:03.795Z,11.85
2022-10-10T17:44:10.256Z,11.72
2022-10-10T17:49:12.421Z,11.57
2022-10-10T17:54:14.418Z,11.44
2022-10-10T17:59:16.156Z,11.30
2022-10-10T18:04:17.885Z,11.15
2022-10-10T18:09:20.176Z,10.99
2022-10-10T18:14:22.481Z,10.87
2022-10-10T18:19:24.823Z,10.75
2022-10-10T18:24:26.934Z,10.60
2022-10-10T18:29:28.746Z,10.38
2022-10-10T18:34:30.587Z,10.28
2022-10-10T18:39:35.636Z,10.13
2022-10-10T18:44:37.371Z,9.93
2022-10-10T18:49:39.087Z,9.71
2022-10-10T18:54:41.229Z,9.49
2022-10-10T18:59:43.250Z,9.28
2022-10-10T19:04:47.998Z,9.08
2022-10-10T19:09:50.112Z,8.89
2022-10-10T19:14:52.009Z,8.68
2022-10-10T19:19:53.909Z,8.45
2022-10-10T19:24:56.512Z,8.22
2022-10-10T19:29:59.330Z,7.97
2022-10-10T19:35:01.311Z,7.76
2022-10-10T19:40:03.566Z,7.58
2022-10-10T19:45:15.327Z,7.40
2022-10-10T19:50:26.421Z,7.24
2022-10-10T19:55:28.617Z,7.10
2022-10-10T20:00:30.532Z,6.97
2022-10-10T20:05:32.223Z,6.80
2022-10-10T20:10:34.332Z,6.71
2022-10-10T20:15:43.136Z,6.65
2022-10-10T20:20:48.326Z,6.70
2022-10-10T20:25:50.900Z,6.84
2022-10-10T20:30:53.951Z,6.84
2022-10-10T20:35:56.285Z,6.86
2022-10-10T20:41:05.413Z,6.94
2022-10-10T20:46:08.979Z,7.04
2022-10-10T20:51:13.649Z,7.31
2022-10-10T20:56:15.380Z,7.52
2022-10-10T21:01:21.330Z,7.65
2022-10-10T21:06:27.285Z,7.76
2022-10-10T21:11:29.038Z,7.77
2022-10-10T21:16:33.991Z,7.78
2022-10-10T21:21:38.382Z,7.79
2022-10-10T21:26:42.002Z,7.82
2022-10-10T21:31:43.922Z,7.98
2022-10-10T21:36:54.783Z,8.22
2022-10-10T21:41:56.486Z,8.42
2022-10-10T21:46:58.313Z,8.64
2022-10-10T21:52:00.373Z,8.91
2022-10-10T21:57:02.078Z,9.18
2022-10-10T22:02:03.948Z,9.39
2022-10-10T22:07:05.643Z,9.62
2022-10-10T22:12:27.262Z,9.89
2022-10-10T22:17:37.171Z,10.28
2022-10-10T22:22:41.359Z,10.49
2022-10-10T22:27:44.097Z,10.69
2022-10-10T22:32:45.893Z,10.90
2022-10-10T22:37:47.730Z,11.04
2022-10-10T22:42:50.156Z,11.20
2022-10-10T22:47:51.955Z,11.37
2022-10-10T22:52:53.775Z,11.54
2022-10-10T22:57:55.545Z,11.68
2022-10-10T23:02:58.464Z,11.78
2022-10-10T23:08:00.488Z,11.91
2022-10-10T23:13:09.559Z,12.06
2022-10-10T23:18:11.633Z,12.17
2022-10-10T23:23:14.127Z,12.25
2022-10-10T23:28:17.450Z,12.32
2022-10-10T23:33:19.276Z,12.36
2022-10-10T23:38:20.956Z,12.43
2022-10-10T23:43:23.924Z,12.47
2022-10-10T23:48:25.747Z,12.48
2022-10-10T23:53:27.609Z,12.49
2022-10-10T23:58:29.326Z,12.48
